Tanfield, United Kingdom
Current Conditions -  °F | °C
As of 1:20 PM on Thursday 23 Oct 2014 (Local Time) from EGNT Reporting Station
Few Clouds Few Clouds  
Wind Chill: 59°   Ceiling: Unl
Heat Index: 59°   Visibility: 6mi
Dew Point: 50°   Wind: 12mph
Humidity: 72%   Direction: 240°WSW
Pressure: 29.83"   Gusts: NA
Location:  54.89°N, 1.71°W
Report Text: EGNT 231220Z 24010KT 9999 FEW030 15/10 Q1010
Loading
Personal Weather Stations






























Interactive Weather Map
Tropical Storm Tracking
New forecast layout! Learn more

10-Day Weather Forecast

Advertisements
Track Severe Weather on mobile